Zarling — WDD7883 — position and weather

sailwx.info

Track history (hours):
 
Tides and Currents Weather Stations Pressure Air Temp Water Temp Dewpoint Dewpoint Depression Visibility Wind Speed Wind Dir Waves Ship Positions

Zarling

Owner: Clean Rivers Co-op, Portland, OR. More information available from US FCC via Universal Licensing System.

Last reported at 2016-Sep-26 02:33 UTC. Time now 2016-Sep-26 03:42 UTC.
Position N 46°11' W 123°51'.

Length 12 m.

Type: Pollution control. MMSI: 3699126.

Date/timePositionNaut miles runAvg speedWind from/ knotsBaromVisibWave heightAir tempDewpointWater temp
2016-Sep-26 02:33N 46°11' W 123°51'56337.3
2016-Sep-26 02:23N 45°37' W 122°48'5666.8
2016-Sep-26 01:33N 46°11' W 123°51'56829.4
2016-Sep-26 01:29N 45°37' W 122°48'43116.9
2016-Sep-26 01:07N 46°12' W 123°23'2034.6
2016-Sep-26 00:33N 46°11' W 123°51'563345.1
2016-Sep-26 00:32N 45°37' W 122°48'5618.7
2016-Sep-25 21:33N 46°11' W 123°51'56825.9
2016-Sep-25 21:29N 45°37' W 122°48'5614.2
2016-Sep-25 17:33N 46°11' W 123°51'56207.8
2016-Sep-25 17:17N 45°37' W 122°48'5676.1
2016-Sep-25 16:33N 46°11' W 123°51'56829.4
2016-Sep-25 16:29N 45°37' W 122°48'5659.8
2016-Sep-25 15:33N 46°11' W 123°51'563136.0
2016-Sep-25 15:32N 45°37' W 122°48'43135.2
2016-Sep-25 15:13N 46°12' W 123°23'2029.4
2016-Sep-25 14:33N 46°11' W 123°51'56812.6
2016-Sep-25 14:29N 45°37' W 122°48'43256.9
2016-Sep-25 14:19N 46°12' W 123°23'2011.1
2016-Sep-25 12:33N 46°11' W 123°51'562995.6
2016-Sep-25 12:32N 45°37' W 122°48'43135.2
2016-Sep-25 12:13N 46°12' W 123°23'2029.4
2016-Sep-25 11:33N 46°11' W 123°51'562995.6
2016-Sep-25 11:32N 45°37' W 122°48'432450.6
2016-Sep-25 11:31N 46°12' W 123°23'2020.3
2016-Sep-25 10:33N 46°11' W 123°51'562826.8
2016-Sep-25 10:32N 45°37' W 122°48'432450.3
2016-Sep-25 10:31N 46°12' W 123°23'2020.3
2016-Sep-25 09:33N 46°11' W 123°51'56809.3
2016-Sep-25 09:29N 45°37' W 122°48'43160.5
2016-Sep-25 09:13N 46°12' W 123°23'2011.4
2016-Sep-25 07:30N 46°11' W 123°51'562995.6
2016-Sep-25 07:29N 45°37' W 122°48'5619.0
2016-Sep-25 04:33N 46°11' W 123°51'56796.5
2016-Sep-25 04:29N 45°37' W 122°48'5614.2
2016-Sep-25 00:33N 46°11' W 123°51'56464.6
2016-Sep-25 00:26N 45°37' W 122°48'5629.7
2016-Sep-24 22:33N 46°11' W 123°51'20521.2
2016-Sep-24 22:31N 46°12' W 123°23'431286.4
2016-Sep-24 22:29N 45°37' W 122°48'5660.0
2016-Sep-24 21:33N 46°11' W 123°51'56793.3
2016-Sep-24 21:29N 45°37' W 122°48'5628.9
2016-Sep-24 19:33N 46°11' W 123°51'20509.9
2016-Sep-24 19:31N 46°12' W 123°23'431308.2
2016-Sep-24 19:29N 45°37' W 122°48'5660.0
2016-Sep-24 18:33N 46°11' W 123°51'56793.3
2016-Sep-24 18:29N 45°37' W 122°48'5660.1
2016-Sep-24 17:33N 46°11' W 123°51'56454.1
2016-Sep-24 17:26N 45°37' W 122°48'5663.5
2016-Sep-24 16:33N 46°11' W 123°51'562573.1
2016-Sep-24 16:32N 45°37' W 122°48'5628.2
2016-Sep-24 14:33N 46°11' W 123°51'56461.4
2016-Sep-24 14:26N 45°37' W 122°48'5629.7
2016-Sep-24 12:33N 46°11' W 123°51'56766.1
2016-Sep-24 12:29N 45°37' W 122°48'43627.5
2016-Sep-24 12:25N 46°12' W 123°23'2010.5
2016-Sep-24 10:33N 46°11' W 123°51'56777.9
2016-Sep-24 10:29N 45°37' W 122°48'43254.3
2016-Sep-24 10:19N 46°12' W 123°23'2025.8
2016-Sep-24 09:33N 46°11' W 123°51'562389.4
2016-Sep-24 09:32N 45°37' W 122°48'432530.6
2016-Sep-24 09:31N 46°12' W 123°23'20 3.3
2016-Sep-24 03:33N 46°11' W 123°51'56757.3
2016-Sep-24 03:29N 45°37' W 122°48'5657.0
2016-Sep-24 02:30N 46°11' W 123°51'562361.1
2016-Sep-24 02:29N 45°37' W 122°48'5660.3
2016-Sep-24 01:33N 46°11' W 123°51'562333.8
2016-Sep-24 01:32N 45°37' W 122°48'5657.1
2016-Sep-24 00:33N 46°11' W 123°51'562306.8
2016-Sep-24 00:32N 45°37' W 122°48'43198.2
2016-Sep-24 00:19N 46°12' W 123°23'20 4.1
2016-Sep-23 19:33N 46°11' W 123°51'562333.8
2016-Sep-23 19:32N 45°37' W 122°48'43365.8
2016-Sep-23 19:25N 46°12' W 123°23'2010.5
2016-Sep-23 17:33N 46°11' W 123°51'56446.0
2016-Sep-23 17:26N 45°37' W 122°48'432530.6
2016-Sep-23 17:25N 46°12' W 123°23'2022.8
2016-Sep-23 16:33N 46°11' W 123°51'562255.1
2016-Sep-23 16:32N 45°37' W 122°48'432572.8
2016-Sep-23 16:31N 46°12' W 123°23'2020.4
2016-Sep-23 15:33N 46°11' W 123°51'56751.7
2016-Sep-23 15:29N 45°37' W 122°48'43116.4
2016-Sep-23 15:07N 46°12' W 123°23'2012.6
2016-Sep-23 13:34N 46°11' W 123°51'562230.1
2016-Sep-23 13:32N 45°37' W 122°48'43360.7
2016-Sep-23 13:25N 46°12' W 123°23'20 5.1
2016-Sep-23 09:34N 46°11' W 123°51'56743.4
2016-Sep-23 09:29N 45°37' W 122°48'43253.9
2016-Sep-23 09:19N 46°12' W 123°23'20 7.1
2016-Sep-23 06:34N 46°11' W 123°51'56735.2
2016-Sep-23 06:29N 45°37' W 122°48'43256.9
2016-Sep-23 06:19N 46°12' W 123°23'2010.8
2016-Sep-23 04:31N 46°11' W 123°51'562027.3
2016-Sep-23 04:29N 45°37' W 122°48'5657.3
2016-Sep-23 03:31N 46°11' W 123°51'56689.7
2016-Sep-23 03:26N 45°37' W 122°48'5657.6
2016-Sep-23 02:28N 46°11' W 123°51'56682.7
2016-Sep-23 02:23N 45°37' W 122°48'5664.1
2016-Sep-23 01:31N 46°11' W 123°51'56425.2
2016-Sep-23 01:23N 45°37' W 122°48'5664.2
2016-Sep-23 00:31N 46°11' W 123°51'56129.3
2016-Sep-23 00:05N 45°37' W 122°48'0 0.0
2016-Sep-22 23:32N 45°37' W 122°48'562995.6
2016-Sep-22 23:31N 46°11' W 123°51'0 0.0
2016-Sep-22 20:31N 46°11' W 123°51'561730.2
2016-Sep-22 20:29N 45°37' W 122°48'43674.1
2016-Sep-22 20:25N 46°12' W 123°23'43 5.4
2016-Sep-22 12:32N 45°37' W 122°48'563401.8
2016-Sep-22 12:31N 46°11' W 123°51'2046.3
2016-Sep-22 12:05N 46°12' W 123°23'43 5.7
2016-Sep-22 04:32N 45°37' W 122°48'56850.4
2016-Sep-22 04:28N 46°11' W 123°51'2049.0
2016-Sep-22 04:04N 46°12' W 123°23'4380.1
2016-Sep-22 03:32N 45°37' W 122°48'563521.2
2016-Sep-22 03:31N 46°11' W 123°51'20131.3
2016-Sep-22 03:22N 46°12' W 123°23'4315.1
2016-Sep-22 00:32N 45°37' W 122°48'56857.7
2016-Sep-22 00:28N 46°11' W 123°51'20390.9
2016-Sep-22 00:25N 46°12' W 123°23'2021.7
2016-Sep-21 23:31N 46°11' W 123°51'561555.9
2016-Sep-21 23:29N 45°37' W 122°48'0 0.0
2016-Sep-21 22:32N 45°37' W 122°48'563786.9
2016-Sep-21 22:31N 46°11' W 123°51'2065.1
2016-Sep-21 22:13N 46°12' W 123°23'20 7.2
2016-Sep-21 19:31N 46°11' W 123°51'561543.9
2016-Sep-21 19:29N 45°37' W 122°48'0 0.0
2016-Sep-21 16:31N 45°37' W 122°48'566272.1
2016-Sep-21 16:31N 46°11' W 123°51'20380.3
2016-Sep-21 16:28N 46°12' W 123°23'43 6.2
2016-Sep-21 09:31N 45°37' W 122°48'566690.2
2016-Sep-21 09:31N 46°11' W 123°51'20376.3
2016-Sep-21 09:28N 46°12' W 123°23'2020.6
2016-Sep-21 08:31N 46°11' W 123°51'561356.1
2016-Sep-21 08:28N 45°37' W 122°48'434062.3
2016-Sep-21 08:28N 46°12' W 123°23'20 6.6
2016-Sep-21 05:31N 46°11' W 123°51'5628.0
2016-Sep-21 03:32N 45°37' W 122°48'565017.6
2016-Sep-21 03:31N 46°11' W 123°51'2077.6
2016-Sep-21 03:16N 46°12' W 123°23'2026.1
2016-Sep-21 02:31N 46°11' W 123°51'56604.5
2016-Sep-21 02:25N 45°37' W 122°48'0 0.0
2016-Sep-20 17:28N 45°37' W 122°48'5610563.5
2016-Sep-20 17:28N 46°11' W 123°51'2048.3
2016-Sep-20 17:04N 46°12' W 123°23'4316.9
2016-Sep-20 14:31N 45°37' W 122°48'561003.5
2016-Sep-20 14:28N 46°11' W 123°51'204690.9
2016-Sep-20 14:28N 46°12' W 123°23'2020.6
2016-Sep-20 13:31N 46°11' W 123°51'561286.6
2016-Sep-20 13:28N 45°37' W 122°48'434172.1
2016-Sep-20 13:28N 46°12' W 123°23'4314.6
2016-Sep-20 10:32N 45°37' W 122°48'568726.3
2016-Sep-20 10:31N 46°11' W 123°51'2055.2
2016-Sep-20 10:10N 46°12' W 123°23'4326.1
2016-Sep-20 08:31N 45°37' W 122°48'5611150.3
2016-Sep-20 08:31N 46°11' W 123°51'20355.4
2016-Sep-20 08:28N 46°12' W 123°23'4345.7
2016-Sep-20 07:32N 45°37' W 122°48'561003.5
2016-Sep-20 07:28N 46°11' W 123°51'20184.2
2016-Sep-20 07:22N 46°12' W 123°23'2023.1
2016-Sep-20 06:31N 46°11' W 123°51'561254.4
2016-Sep-20 06:29N 45°37' W 122°48'433859.2
2016-Sep-20 06:28N 46°12' W 123°23'20 5.0
2016-Sep-20 02:31N 46°11' W 123°51'561262.3
2016-Sep-20 02:29N 45°37' W 122°48'43692.2
2016-Sep-20 02:25N 46°12' W 123°23'4314.8
2016-Sep-19 23:31N 45°37' W 122°48'5618246.0
2016-Sep-19 23:31N 46°11' W 123°51'5613.9
2016-Sep-19 19:30N 45°37' W 122°48'562090.7
2016-Sep-19 19:28N 46°11' W 123°51'2094.1
2016-Sep-19 19:16N 46°12' W 123°23'2026.3
2016-Sep-19 18:31N 46°11' W 123°51'562447.6
2016-Sep-19 18:30N 45°37' W 122°48'431265.3
2016-Sep-19 18:28N 46°12' W 123°23'2010.1
2016-Sep-19 16:31N 46°11' W 123°51'20335.1
2016-Sep-19 16:28N 46°12' W 123°23'432858.7
2016-Sep-19 16:27N 45°37' W 122°48'0 0.0
2016-Sep-19 14:33N 45°37' W 122°48'562090.7
2016-Sep-19 14:31N 46°11' W 123°51'20124.1
2016-Sep-19 14:22N 46°12' W 123°23'2023.2
2016-Sep-19 13:31N 46°11' W 123°51'562389.4
2016-Sep-19 13:30N 45°37' W 122°48'0 0.0
2016-Sep-19 12:33N 45°37' W 122°48'562048.0
2016-Sep-19 12:31N 46°11' W 123°51'202426.3
2016-Sep-19 12:31N 46°12' W 123°23'4344.4
2016-Sep-19 11:33N 45°37' W 122°48'562135.2
2016-Sep-19 11:31N 46°11' W 123°51'20333.5
2016-Sep-19 11:28N 46°12' W 123°23'2010.1
2016-Sep-19 09:31N 46°11' W 123°51'56754.5
2016-Sep-19 09:27N 45°37' W 122°48'43150.5
2016-Sep-19 09:10N 46°12' W 123°23'2011.9
2016-Sep-19 07:31N 46°11' W 123°51'562280.6
2016-Sep-19 07:30N 45°37' W 122°48'431225.1
2016-Sep-19 07:28N 46°12' W 123°23'2020.8
2016-Sep-19 06:31N 46°11' W 123°51'20331.9
2016-Sep-19 06:28N 46°12' W 123°23'432806.7
2016-Sep-19 06:27N 45°37' W 122°48'0 0.0
2016-Sep-19 03:33N 45°37' W 122°48'562205.6
2016-Sep-19 03:31N 46°11' W 123°51'5657.2
2016-Sep-19 02:33N 45°37' W 122°48'562255.1
2016-Sep-19 02:31N 46°11' W 123°51'20324.3
2016-Sep-19 02:28N 46°12' W 123°23'4321.8
2016-Sep-19 00:30N 45°37' W 122°48'562280.7
2016-Sep-19 00:29N 46°11' W 123°51'5611.3
2016-Sep-18 19:33N 45°37' W 122°48'562307.0
2016-Sep-18 19:31N 46°11' W 123°51'2050.7
2016-Sep-18 19:08N 46°12' W 123°23'4311.9
2016-Sep-18 15:33N 45°37' W 122°48'434410.5
2016-Sep-18 15:32N 46°12' W 123°23'201436.0
2016-Sep-18 15:32N 46°11' W 123°51'0 0.0
2016-Sep-18 14:32N 46°11' W 123°51'562090.5
2016-Sep-18 14:30N 45°37' W 122°48'43718.0
2016-Sep-18 14:26N 46°12' W 123°23'4311.0
2016-Sep-18 10:33N 45°37' W 122°48'562640.9
2016-Sep-18 10:32N 46°11' W 123°51'2080.4
2016-Sep-18 10:17N 46°12' W 123°23'4358.4
2016-Sep-18 09:33N 45°37' W 122°48'562361.2
2016-Sep-18 09:32N 46°11' W 123°51'0 0.0
2016-Sep-18 02:32N 46°11' W 123°51'561987.1
2016-Sep-18 02:30N 45°37' W 122°48'0 0.0
2016-Sep-18 01:33N 45°37' W 122°48'562640.9
2016-Sep-18 01:32N 46°11' W 123°51'2044.1
2016-Sep-18 01:05N 46°12' W 123°23'2035.1
2016-Sep-18 00:32N 46°11' W 123°51'561967.7
2016-Sep-18 00:30N 45°37' W 122°48'5628.3
2016-Sep-17 22:32N 46°11' W 123°51'56706.7
2016-Sep-17 22:27N 45°37' W 122°48'0 0.0
2016-Sep-17 21:33N 45°37' W 122°48'562508.8
2016-Sep-17 21:32N 46°11' W 123°51'5656.9
2016-Sep-17 20:33N 45°37' W 122°48'562676.1
2016-Sep-17 20:32N 46°11' W 123°51'2080.4
2016-Sep-17 20:17N 46°12' W 123°23'2017.7
2016-Sep-17 19:11N 46°11' W 123°51'56658.1
2016-Sep-17 19:06N 45°37' W 122°48'5610.0
2016-Sep-17 13:32N 46°11' W 123°51'561645.1
2016-Sep-17 13:30N 45°37' W 122°48'43138.4
2016-Sep-17 13:11N 46°12' W 123°23'2029.8
2016-Sep-17 12:32N 46°11' W 123°51'561645.1
2016-Sep-17 12:30N 45°37' W 122°48'434062.3
2016-Sep-17 12:29N 46°12' W 123°23'4322.1
2016-Sep-17 10:33N 45°37' W 122°48'563460.4
2016-Sep-17 10:32N 46°11' W 123°51'0 0.0
2016-Sep-17 09:32N 46°11' W 123°51'561592.9
2016-Sep-17 09:30N 45°37' W 122°48'43138.0
2016-Sep-17 09:11N 46°12' W 123°23'4362.2
2016-Sep-17 08:30N 45°37' W 122°48'433958.1
2016-Sep-17 08:29N 46°12' W 123°23'206396.7
2016-Sep-17 08:29N 46°11' W 123°51'0 0.0
2016-Sep-17 07:32N 46°11' W 123°51'561605.5
2016-Sep-17 07:30N 45°37' W 122°48'434410.5
2016-Sep-17 07:29N 46°12' W 123°23'4322.1
2016-Sep-17 05:33N 45°37' W 122°48'563859.7
2016-Sep-17 05:32N 46°11' W 123°51'20423.9
2016-Sep-17 05:29N 46°12' W 123°23'2020.5
2016-Sep-17 04:32N 46°11' W 123°51'561580.4
2016-Sep-17 04:30N 45°37' W 122°48'434062.3
2016-Sep-17 04:29N 46°12' W 123°23'4310.9
2016-Sep-17 00:33N 45°37' W 122°48'56876.4
2016-Sep-17 00:29N 46°11' W 123°51'2099.9
2016-Sep-17 00:17N 46°12' W 123°23'43 6.4
2016-Sep-16 17:33N 45°37' W 122°48'564460.1
2016-Sep-16 17:32N 46°11' W 123°51'20132.0
2016-Sep-16 17:23N 46°12' W 123°23'2010.6
2016-Sep-16 15:32N 46°11' W 123°51'561454.4
2016-Sep-16 15:30N 45°37' W 122°48'43387.9
2016-Sep-16 15:23N 46°12' W 123°23'4315.1
2016-Sep-16 12:33N 45°37' W 122°48'565146.3
2016-Sep-16 12:32N 46°11' W 123°51'2043.6
2016-Sep-16 12:05N 46°12' W 123°23'20 7.7
2016-Sep-16 09:32N 46°11' W 123°51'561413.4
2016-Sep-16 09:30N 45°37' W 122°48'0 0.0
2016-Sep-16 07:33N 45°37' W 122°48'565146.0
2016-Sep-16 07:32N 46°11' W 123°51'2078.5
2016-Sep-16 07:17N 46°12' W 123°23'4311.5
2016-Sep-16 03:33N 45°37' W 122°48'565017.6
2016-Sep-16 03:32N 46°11' W 123°51'205863.6
2016-Sep-16 03:32N 46°12' W 123°23'  
Track history (hours):
 
Tides and Currents Weather Stations Pressure Air Temp Water Temp Dewpoint Dewpoint Depression Visibility Wind Speed Wind Dir Waves Ship Positions

Zarling

Owner: Clean Rivers Co-op, Portland, OR. More information available from US FCC via Universal Licensing System.

Last reported at 2016-Sep-26 02:33 UTC. Time now 2016-Sep-26 03:42 UTC.
Position N 46°11' W 123°51'.

Length 12 m.

Type: Pollution control. MMSI: 3699126.

Date/timePositionNaut miles runAvg speedWind from/ knotsBaromVisibWave heightAir tempDewpointWater temp
2016-Sep-26 02:33N 46°11' W 123°51'56337.3
2016-Sep-26 02:23N 45°37' W 122°48'5666.8
2016-Sep-26 01:33N 46°11' W 123°51'56829.4
2016-Sep-26 01:29N 45°37' W 122°48'43116.9
2016-Sep-26 01:07N 46°12' W 123°23'2034.6
2016-Sep-26 00:33N 46°11' W 123°51'563345.1
2016-Sep-26 00:32N 45°37' W 122°48'5618.7
2016-Sep-25 21:33N 46°11' W 123°51'56825.9
2016-Sep-25 21:29N 45°37' W 122°48'5614.2
2016-Sep-25 17:33N 46°11' W 123°51'56207.8
2016-Sep-25 17:17N 45°37' W 122°48'5676.1
2016-Sep-25 16:33N 46°11' W 123°51'56829.4
2016-Sep-25 16:29N 45°37' W 122°48'5659.8
2016-Sep-25 15:33N 46°11' W 123°51'563136.0
2016-Sep-25 15:32N 45°37' W 122°48'43135.2
2016-Sep-25 15:13N 46°12' W 123°23'2029.4
2016-Sep-25 14:33N 46°11' W 123°51'56812.6
2016-Sep-25 14:29N 45°37' W 122°48'43256.9
2016-Sep-25 14:19N 46°12' W 123°23'2011.1
2016-Sep-25 12:33N 46°11' W 123°51'562995.6
2016-Sep-25 12:32N 45°37' W 122°48'43135.2
2016-Sep-25 12:13N 46°12' W 123°23'2029.4
2016-Sep-25 11:33N 46°11' W 123°51'562995.6
2016-Sep-25 11:32N 45°37' W 122°48'432450.6
2016-Sep-25 11:31N 46°12' W 123°23'2020.3
2016-Sep-25 10:33N 46°11' W 123°51'562826.8
2016-Sep-25 10:32N 45°37' W 122°48'432450.3
2016-Sep-25 10:31N 46°12' W 123°23'2020.3
2016-Sep-25 09:33N 46°11' W 123°51'56809.3
2016-Sep-25 09:29N 45°37' W 122°48'43160.5
2016-Sep-25 09:13N 46°12' W 123°23'2011.4
2016-Sep-25 07:30N 46°11' W 123°51'562995.6
2016-Sep-25 07:29N 45°37' W 122°48'5619.0
2016-Sep-25 04:33N 46°11' W 123°51'56796.5
2016-Sep-25 04:29N 45°37' W 122°48'5614.2
2016-Sep-25 00:33N 46°11' W 123°51'56464.6
2016-Sep-25 00:26N 45°37' W 122°48'5629.7
2016-Sep-24 22:33N 46°11' W 123°51'20521.2
2016-Sep-24 22:31N 46°12' W 123°23'431286.4
2016-Sep-24 22:29N 45°37' W 122°48'5660.0
2016-Sep-24 21:33N 46°11' W 123°51'56793.3
2016-Sep-24 21:29N 45°37' W 122°48'5628.9
2016-Sep-24 19:33N 46°11' W 123°51'20509.9
2016-Sep-24 19:31N 46°12' W 123°23'431308.2
2016-Sep-24 19:29N 45°37' W 122°48'5660.0
2016-Sep-24 18:33N 46°11' W 123°51'56793.3
2016-Sep-24 18:29N 45°37' W 122°48'5660.1
2016-Sep-24 17:33N 46°11' W 123°51'56454.1
2016-Sep-24 17:26N 45°37' W 122°48'5663.5
2016-Sep-24 16:33N 46°11' W 123°51'562573.1
2016-Sep-24 16:32N 45°37' W 122°48'5628.2
2016-Sep-24 14:33N 46°11' W 123°51'56461.4
2016-Sep-24 14:26N 45°37' W 122°48'5629.7
2016-Sep-24 12:33N 46°11' W 123°51'56766.1
2016-Sep-24 12:29N 45°37' W 122°48'43627.5
2016-Sep-24 12:25N 46°12' W 123°23'2010.5
2016-Sep-24 10:33N 46°11' W 123°51'56777.9
2016-Sep-24 10:29N 45°37' W 122°48'43254.3
2016-Sep-24 10:19N 46°12' W 123°23'2025.8
2016-Sep-24 09:33N 46°11' W 123°51'562389.4
2016-Sep-24 09:32N 45°37' W 122°48'432530.6
2016-Sep-24 09:31N 46°12' W 123°23'20 3.3
2016-Sep-24 03:33N 46°11' W 123°51'56757.3
2016-Sep-24 03:29N 45°37' W 122°48'5657.0
2016-Sep-24 02:30N 46°11' W 123°51'562361.1
2016-Sep-24 02:29N 45°37' W 122°48'5660.3
2016-Sep-24 01:33N 46°11' W 123°51'562333.8
2016-Sep-24 01:32N 45°37' W 122°48'5657.1
2016-Sep-24 00:33N 46°11' W 123°51'562306.8
2016-Sep-24 00:32N 45°37' W 122°48'43198.2
2016-Sep-24 00:19N 46°12' W 123°23'20 4.1
2016-Sep-23 19:33N 46°11' W 123°51'562333.8
2016-Sep-23 19:32N 45°37' W 122°48'43365.8
2016-Sep-23 19:25N 46°12' W 123°23'2010.5
2016-Sep-23 17:33N 46°11' W 123°51'56446.0
2016-Sep-23 17:26N 45°37' W 122°48'432530.6
2016-Sep-23 17:25N 46°12' W 123°23'2022.8
2016-Sep-23 16:33N 46°11' W 123°51'562255.1
2016-Sep-23 16:32N 45°37' W 122°48'432572.8
2016-Sep-23 16:31N 46°12' W 123°23'2020.4
2016-Sep-23 15:33N 46°11' W 123°51'56751.7
2016-Sep-23 15:29N 45°37' W 122°48'43116.4
2016-Sep-23 15:07N 46°12' W 123°23'2012.6
2016-Sep-23 13:34N 46°11' W 123°51'562230.1
2016-Sep-23 13:32N 45°37' W 122°48'43360.7
2016-Sep-23 13:25N 46°12' W 123°23'20 5.1
2016-Sep-23 09:34N 46°11' W 123°51'56743.4
2016-Sep-23 09:29N 45°37' W 122°48'43253.9
2016-Sep-23 09:19N 46°12' W 123°23'20 7.1
2016-Sep-23 06:34N 46°11' W 123°51'56735.2
2016-Sep-23 06:29N 45°37' W 122°48'43256.9
2016-Sep-23 06:19N 46°12' W 123°23'2010.8
2016-Sep-23 04:31N 46°11' W 123°51'562027.3
2016-Sep-23 04:29N 45°37' W 122°48'5657.3
2016-Sep-23 03:31N 46°11' W 123°51'56689.7
2016-Sep-23 03:26N 45°37' W 122°48'5657.6
2016-Sep-23 02:28N 46°11' W 123°51'56682.7
2016-Sep-23 02:23N 45°37' W 122°48'5664.1
2016-Sep-23 01:31N 46°11' W 123°51'56425.2
2016-Sep-23 01:23N 45°37' W 122°48'5664.2
2016-Sep-23 00:31N 46°11' W 123°51'56129.3
2016-Sep-23 00:05N 45°37' W 122°48'0 0.0
2016-Sep-22 23:32N 45°37' W 122°48'562995.6
2016-Sep-22 23:31N 46°11' W 123°51'0 0.0
2016-Sep-22 20:31N 46°11' W 123°51'561730.2
2016-Sep-22 20:29N 45°37' W 122°48'43674.1
2016-Sep-22 20:25N 46°12' W 123°23'43 5.4
2016-Sep-22 12:32N 45°37' W 122°48'563401.8
2016-Sep-22 12:31N 46°11' W 123°51'2046.3
2016-Sep-22 12:05N 46°12' W 123°23'43 5.7
2016-Sep-22 04:32N 45°37' W 122°48'56850.4
2016-Sep-22 04:28N 46°11' W 123°51'2049.0
2016-Sep-22 04:04N 46°12' W 123°23'4380.1
2016-Sep-22 03:32N 45°37' W 122°48'563521.2
2016-Sep-22 03:31N 46°11' W 123°51'20131.3
2016-Sep-22 03:22N 46°12' W 123°23'4315.1
2016-Sep-22 00:32N 45°37' W 122°48'56857.7
2016-Sep-22 00:28N 46°11' W 123°51'20390.9
2016-Sep-22 00:25N 46°12' W 123°23'2021.7
2016-Sep-21 23:31N 46°11' W 123°51'561555.9
2016-Sep-21 23:29N 45°37' W 122°48'0 0.0
2016-Sep-21 22:32N 45°37' W 122°48'563786.9
2016-Sep-21 22:31N 46°11' W 123°51'2065.1
2016-Sep-21 22:13N 46°12' W 123°23'20 7.2
2016-Sep-21 19:31N 46°11' W 123°51'561543.9
2016-Sep-21 19:29N 45°37' W 122°48'0 0.0
2016-Sep-21 16:31N 45°37' W 122°48'566272.1
2016-Sep-21 16:31N 46°11' W 123°51'20380.3
2016-Sep-21 16:28N 46°12' W 123°23'43 6.2
2016-Sep-21 09:31N 45°37' W 122°48'566690.2
2016-Sep-21 09:31N 46°11' W 123°51'20376.3
2016-Sep-21 09:28N 46°12' W 123°23'2020.6
2016-Sep-21 08:31N 46°11' W 123°51'561356.1
2016-Sep-21 08:28N 45°37' W 122°48'434062.3
2016-Sep-21 08:28N 46°12' W 123°23'20 6.6
2016-Sep-21 05:31N 46°11' W 123°51'5628.0
2016-Sep-21 03:32N 45°37' W 122°48'565017.6
2016-Sep-21 03:31N 46°11' W 123°51'2077.6
2016-Sep-21 03:16N 46°12' W 123°23'2026.1
2016-Sep-21 02:31N 46°11' W 123°51'56604.5
2016-Sep-21 02:25N 45°37' W 122°48'0 0.0
2016-Sep-20 17:28N 45°37' W 122°48'5610563.5
2016-Sep-20 17:28N 46°11' W 123°51'2048.3
2016-Sep-20 17:04N 46°12' W 123°23'4316.9
2016-Sep-20 14:31N 45°37' W 122°48'561003.5
2016-Sep-20 14:28N 46°11' W 123°51'204690.9
2016-Sep-20 14:28N 46°12' W 123°23'2020.6
2016-Sep-20 13:31N 46°11' W 123°51'561286.6
2016-Sep-20 13:28N 45°37' W 122°48'434172.1
2016-Sep-20 13:28N 46°12' W 123°23'4314.6
2016-Sep-20 10:32N 45°37' W 122°48'568726.3
2016-Sep-20 10:31N 46°11' W 123°51'2055.2
2016-Sep-20 10:10N 46°12' W 123°23'4326.1
2016-Sep-20 08:31N 45°37' W 122°48'5611150.3
2016-Sep-20 08:31N 46°11' W 123°51'20355.4
2016-Sep-20 08:28N 46°12' W 123°23'4345.7
2016-Sep-20 07:32N 45°37' W 122°48'561003.5
2016-Sep-20 07:28N 46°11' W 123°51'20184.2
2016-Sep-20 07:22N 46°12' W 123°23'2023.1
2016-Sep-20 06:31N 46°11' W 123°51'561254.4
2016-Sep-20 06:29N 45°37' W 122°48'433859.2
2016-Sep-20 06:28N 46°12' W 123°23'20 5.0
2016-Sep-20 02:31N 46°11' W 123°51'561262.3
2016-Sep-20 02:29N 45°37' W 122°48'43692.2
2016-Sep-20 02:25N 46°12' W 123°23'4314.8
2016-Sep-19 23:31N 45°37' W 122°48'5618246.0
2016-Sep-19 23:31N 46°11' W 123°51'5613.9
2016-Sep-19 19:30N 45°37' W 122°48'562090.7
2016-Sep-19 19:28N 46°11' W 123°51'2094.1
2016-Sep-19 19:16N 46°12' W 123°23'2026.3
2016-Sep-19 18:31N 46°11' W 123°51'562447.6
2016-Sep-19 18:30N 45°37' W 122°48'431265.3
2016-Sep-19 18:28N 46°12' W 123°23'2010.1
2016-Sep-19 16:31N 46°11' W 123°51'20335.1
2016-Sep-19 16:28N 46°12' W 123°23'432858.7
2016-Sep-19 16:27N 45°37' W 122°48'0 0.0
2016-Sep-19 14:33N 45°37' W 122°48'562090.7
2016-Sep-19 14:31N 46°11' W 123°51'20124.1
2016-Sep-19 14:22N 46°12' W 123°23'2023.2
2016-Sep-19 13:31N 46°11' W 123°51'562389.4
2016-Sep-19 13:30N 45°37' W 122°48'0 0.0
2016-Sep-19 12:33N 45°37' W 122°48'562048.0
2016-Sep-19 12:31N 46°11' W 123°51'202426.3
2016-Sep-19 12:31N 46°12' W 123°23'4344.4
2016-Sep-19 11:33N 45°37' W 122°48'562135.2
2016-Sep-19 11:31N 46°11' W 123°51'20333.5
2016-Sep-19 11:28N 46°12' W 123°23'2010.1
2016-Sep-19 09:31N 46°11' W 123°51'56754.5
2016-Sep-19 09:27N 45°37' W 122°48'43150.5
2016-Sep-19 09:10N 46°12' W 123°23'2011.9
2016-Sep-19 07:31N 46°11' W 123°51'562280.6
2016-Sep-19 07:30N 45°37' W 122°48'431225.1
2016-Sep-19 07:28N 46°12' W 123°23'2020.8
2016-Sep-19 06:31N 46°11' W 123°51'20331.9
2016-Sep-19 06:28N 46°12' W 123°23'432806.7
2016-Sep-19 06:27N 45°37' W 122°48'0 0.0
2016-Sep-19 03:33N 45°37' W 122°48'562205.6
2016-Sep-19 03:31N 46°11' W 123°51'5657.2
2016-Sep-19 02:33N 45°37' W 122°48'562255.1
2016-Sep-19 02:31N 46°11' W 123°51'20324.3
2016-Sep-19 02:28N 46°12' W 123°23'4321.8
2016-Sep-19 00:30N 45°37' W 122°48'562280.7
2016-Sep-19 00:29N 46°11' W 123°51'5611.3
2016-Sep-18 19:33N 45°37' W 122°48'562307.0
2016-Sep-18 19:31N 46°11' W 123°51'2050.7
2016-Sep-18 19:08N 46°12' W 123°23'4311.9
2016-Sep-18 15:33N 45°37' W 122°48'434410.5
2016-Sep-18 15:32N 46°12' W 123°23'201436.0
2016-Sep-18 15:32N 46°11' W 123°51'0 0.0
2016-Sep-18 14:32N 46°11' W 123°51'562090.5
2016-Sep-18 14:30N 45°37' W 122°48'43718.0
2016-Sep-18 14:26N 46°12' W 123°23'4311.0
2016-Sep-18 10:33N 45°37' W 122°48'562640.9
2016-Sep-18 10:32N 46°11' W 123°51'2080.4
2016-Sep-18 10:17N 46°12' W 123°23'4358.4
2016-Sep-18 09:33N 45°37' W 122°48'562361.2
2016-Sep-18 09:32N 46°11' W 123°51'0 0.0
2016-Sep-18 02:32N 46°11' W 123°51'561987.1
2016-Sep-18 02:30N 45°37' W 122°48'0 0.0
2016-Sep-18 01:33N 45°37' W 122°48'562640.9
2016-Sep-18 01:32N 46°11' W 123°51'2044.1
2016-Sep-18 01:05N 46°12' W 123°23'2035.1
2016-Sep-18 00:32N 46°11' W 123°51'561967.7
2016-Sep-18 00:30N 45°37' W 122°48'5628.3
2016-Sep-17 22:32N 46°11' W 123°51'56706.7
2016-Sep-17 22:27N 45°37' W 122°48'0 0.0
2016-Sep-17 21:33N 45°37' W 122°48'562508.8
2016-Sep-17 21:32N 46°11' W 123°51'5656.9
2016-Sep-17 20:33N 45°37' W 122°48'562676.1
2016-Sep-17 20:32N 46°11' W 123°51'2080.4
2016-Sep-17 20:17N 46°12' W 123°23'2017.7
2016-Sep-17 19:11N 46°11' W 123°51'56658.1
2016-Sep-17 19:06N 45°37' W 122°48'5610.0
2016-Sep-17 13:32N 46°11' W 123°51'561645.1
2016-Sep-17 13:30N 45°37' W 122°48'43138.4
2016-Sep-17 13:11N 46°12' W 123°23'2029.8
2016-Sep-17 12:32N 46°11' W 123°51'561645.1
2016-Sep-17 12:30N 45°37' W 122°48'434062.3
2016-Sep-17 12:29N 46°12' W 123°23'4322.1
2016-Sep-17 10:33N 45°37' W 122°48'563460.4
2016-Sep-17 10:32N 46°11' W 123°51'0 0.0
2016-Sep-17 09:32N 46°11' W 123°51'561592.9
2016-Sep-17 09:30N 45°37' W 122°48'43138.0
2016-Sep-17 09:11N 46°12' W 123°23'4362.2
2016-Sep-17 08:30N 45°37' W 122°48'433958.1
2016-Sep-17 08:29N 46°12' W 123°23'206396.7
2016-Sep-17 08:29N 46°11' W 123°51'0 0.0
2016-Sep-17 07:32N 46°11' W 123°51'561605.5
2016-Sep-17 07:30N 45°37' W 122°48'434410.5
2016-Sep-17 07:29N 46°12' W 123°23'4322.1
2016-Sep-17 05:33N 45°37' W 122°48'563859.7
2016-Sep-17 05:32N 46°11' W 123°51'20423.9
2016-Sep-17 05:29N 46°12' W 123°23'2020.5
2016-Sep-17 04:32N 46°11' W 123°51'561580.4
2016-Sep-17 04:30N 45°37' W 122°48'434062.3
2016-Sep-17 04:29N 46°12' W 123°23'4310.9
2016-Sep-17 00:33N 45°37' W 122°48'56876.4
2016-Sep-17 00:29N 46°11' W 123°51'2099.9
2016-Sep-17 00:17N 46°12' W 123°23'43 6.4
2016-Sep-16 17:33N 45°37' W 122°48'564460.1
2016-Sep-16 17:32N 46°11' W 123°51'20132.0
2016-Sep-16 17:23N 46°12' W 123°23'2010.6
2016-Sep-16 15:32N 46°11' W 123°51'561454.4
2016-Sep-16 15:30N 45°37' W 122°48'43387.9
2016-Sep-16 15:23N 46°12' W 123°23'4315.1
2016-Sep-16 12:33N 45°37' W 122°48'565146.3
2016-Sep-16 12:32N 46°11' W 123°51'2043.6
2016-Sep-16 12:05N 46°12' W 123°23'20 7.7
2016-Sep-16 09:32N 46°11' W 123°51'561413.4
2016-Sep-16 09:30N 45°37' W 122°48'0 0.0
2016-Sep-16 07:33N 45°37' W 122°48'565146.0
2016-Sep-16 07:32N 46°11' W 123°51'2078.5
2016-Sep-16 07:17N 46°12' W 123°23'4311.5
2016-Sep-16 03:33N 45°37' W 122°48'565017.6
2016-Sep-16 03:32N 46°11' W 123°51'205863.6
2016-Sep-16 03:32N 46°12' W 123°23'  

Dump ship's entire track history